Aviation Digital Data Service (ADDS)

Output produced by METARs form (2319 UTC 01 February 2023)
found at http://www.aviationweather.gov/metar/data/
 
KMOB 012256Z 36007KT 7SM OVC013 17/12 A3019 RMK AO2 SLP222 T01720117 $
KMOB 012013Z 0120/0218 02009KT P6SM OVC011 
     FM012100 01008KT P6SM BKN015 BKN025 
     FM020600 05009KT 5SM BR BKN007 OVC015 
     FM021500 06006KT 5SM BR BKN015 OVC025